Time;durP1;ratioP1;P1;durP2;ratioP2;P2;SDS_P1;SDS_P2;PMS_P1;PMS_P2;Temp;Humidity;BMP_temperature;BMP_pressure;BME280_temperature;BME280_humidity;BME280_pressure;Samples;Min_cycle;Max_cycle;Signal;HPM_P1;HPM_P2
2022/03/30 00:01:04;;;;;;;16.13;9.93;;;;;;;;;;7329759;19;161766;-15
2022/03/30 00:03:36;;;;;;;14.02;9.63;;;;;;;;;;7330039;19;162554;-15
2022/03/30 00:06:10;;;;;;;14.25;9.13;;;;;;;;;;7330398;19;153974;-14
2022/03/30 00:08:42;;;;;;;14.82;9.15;;;;;;;;;;7333083;19;153733;-14
2022/03/30 00:11:14;;;;;;;12.27;8.93;;;;;;;;;;7325417;19;161980;-14
2022/03/30 00:13:45;;;;;;;13.05;9.02;;;;;;;;;;7326274;19;162477;-16
2022/03/30 00:16:16;;;;;;;13.60;9.30;;;;;;;;;;7328156;19;154133;-14
2022/03/30 00:18:48;;;;;;;12.68;8.98;;;;;;;;;;7330186;19;153958;-15
2022/03/30 00:21:22;;;;;;;12.98;8.88;;;;;;;;;;7329356;19;161792;-15
2022/03/30 00:23:53;;;;;;;18.27;10.30;;;;;;;;;;7329415;19;162712;-15
2022/03/30 00:26:24;;;;;;;13.40;9.55;;;;;;;;;;7328659;19;154025;-15
2022/03/30 00:28:56;;;;;;;14.32;9.38;;;;;;;;;;7329661;19;153945;-14
2022/03/30 00:31:27;;;;;;;13.70;10.05;;;;;;;;;;7332475;19;161861;-15
2022/03/30 00:33:58;;;;;;;14.45;9.50;;;;;;;;;;7332411;19;162653;-15
2022/03/30 00:36:32;;;;;;;15.25;9.10;;;;;;;;;;7332655;19;153978;-15
2022/03/30 00:39:03;;;;;;;13.68;8.82;;;;;;;;;;7332248;19;153574;-22
2022/03/30 00:41:35;;;;;;;11.10;7.40;;;;;;;;;;7332554;19;162032;-14
2022/03/30 00:44:12;;;;;;;12.98;7.70;;;;;;;;;;7332357;19;162488;-15
2022/03/30 00:46:46;;;;;;;9.63;7.55;;;;;;;;;;7332765;19;154293;-16
2022/03/30 00:49:18;;;;;;;10.80;7.53;;;;;;;;;;7331960;19;153674;-16
2022/03/30 00:51:52;;;;;;;9.32;6.95;;;;;;;;;;7332115;19;163847;-15
2022/03/30 12:53:38;;;;;;;7.07;5.32;;;;;;;;;;2305190;19;3256261;-16
2022/03/30 12:56:17;;;;;;;12.48;5.25;;;;;;;;;;7364343;19;162315;-17
2022/03/30 12:58:53;;;;;;;8.82;4.75;;;;;;;;;;7364563;19;153876;-17
2022/03/30 13:01:37;;;;;;;13.45;5.10;;;;;;;;;;7364540;19;153561;-17
2022/03/30 13:04:20;;;;;;;9.55;5.55;;;;;;;;;;7364463;19;161833;-17
2022/03/30 13:07:07;;;;;;;9.05;4.90;;;;;;;;;;7362274;19;163116;-18
2022/03/30 13:09:46;;;;;;;6.50;5.00;;;;;;;;;;7363339;19;154116;-17
2022/03/30 13:12:17;;;;;;;7.18;4.65;;;;;;;;;;7364271;19;153524;-17
2022/03/30 13:14:51;;;;;;;10.23;4.80;;;;;;;;;;7363775;19;161585;-17
2022/03/30 13:17:23;;;;;;;7.50;5.25;;;;;;;;;;7363949;19;162361;-17
2022/03/30 13:20:02;;;;;;;7.60;4.90;;;;;;;;;;7364236;19;154007;-17
2022/03/30 13:22:33;;;;;;;5.95;4.88;;;;;;;;;;7364112;19;153513;-16
2022/03/30 13:25:08;;;;;;;6.00;4.60;;;;;;;;;;7363716;19;161989;-16
2022/03/30 13:27:43;;;;;;;5.90;4.13;;;;;;;;;;7361097;19;162850;-16
2022/03/30 13:30:15;;;;;;;5.95;4.38;;;;;;;;;;7363818;19;153907;-17
2022/03/30 13:32:46;;;;;;;8.30;5.18;;;;;;;;;;7362098;19;154298;-17
2022/03/30 13:35:17;;;;;;;8.68;4.70;;;;;;;;;;7363143;19;161712;-17
2022/03/30 13:37:48;;;;;;;7.13;4.47;;;;;;;;;;7346087;19;162575;-17
2022/03/30 13:40:23;;;;;;;6.40;4.55;;;;;;;;;;7333797;19;153933;-16
2022/03/30 13:42:54;;;;;;;4.65;4.10;;;;;;;;;;7333780;19;153707;-16
2022/03/30 13:45:25;;;;;;;7.28;4.20;;;;;;;;;;7334109;19;162022;-17
2022/03/30 13:47:56;;;;;;;5.13;3.60;;;;;;;;;;7331905;19;162613;-18
2022/03/30 13:50:28;;;;;;;4.57;4.18;;;;;;;;;;7334553;19;153766;-18
2022/03/30 13:53:02;;;;;;;7.53;4.72;;;;;;;;;;7334358;19;153496;-17
2022/03/30 13:55:38;;;;;;;7.57;4.80;;;;;;;;;;7331344;19;163717;-17
2022/03/30 13:58:10;;;;;;;5.25;4.75;;;;;;;;;;7333942;19;162673;-17
2022/03/30 14:00:45;;;;;;;4.82;4.15;;;;;;;;;;7334049;19;154019;-16
2022/03/30 14:03:16;;;;;;;5.28;3.75;;;;;;;;;;7333081;19;153682;-17
2022/03/30 14:05:47;;;;;;;5.65;4.30;;;;;;;;;;7333728;19;161972;-17
2022/03/30 14:08:19;;;;;;;4.82;3.75;;;;;;;;;;7333563;19;162123;-16
2022/03/30 14:10:53;;;;;;;5.85;3.70;;;;;;;;;;7334044;19;153935;-18
2022/03/30 14:13:25;;;;;;;11.40;3.88;;;;;;;;;;7333913;19;153499;-17
2022/03/30 14:15:57;;;;;;;5.67;3.93;;;;;;;;;;7333561;19;161752;-17
2022/03/30 14:18:29;;;;;;;5.82;3.75;;;;;;;;;;7333419;19;162548;-17
2022/03/30 14:21:00;;;;;;;4.43;3.55;;;;;;;;;;7333623;19;154071;-17
2022/03/30 14:23:32;;;;;;;5.95;3.60;;;;;;;;;;7332335;19;153559;-17
2022/03/30 14:26:05;;;;;;;5.43;3.97;;;;;;;;;;7333049;19;161819;-16
2022/03/30 14:28:37;;;;;;;5.75;3.65;;;;;;;;;;7332938;19;162810;-17
2022/03/30 14:31:08;;;;;;;5.55;4.00;;;;;;;;;;7333093;19;154081;-17
2022/03/30 14:33:39;;;;;;;5.13;4.07;;;;;;;;;;7333240;19;153598;-17
2022/03/30 14:36:11;;;;;;;5.05;3.20;;;;;;;;;;7332723;19;161835;-17
2022/03/30 14:38:42;;;;;;;4.50;3.60;;;;;;;;;;7332645;19;162482;-16
2022/03/30 14:41:16;;;;;;;4.88;3.47;;;;;;;;;;7332781;19;153892;-18
2022/03/30 14:43:47;;;;;;;5.75;3.40;;;;;;;;;;7332831;19;153573;-17
2022/03/30 14:46:19;;;;;;;3.40;3.10;;;;;;;;;;7331718;19;161603;-16
2022/03/30 14:48:50;;;;;;;4.18;2.97;;;;;;;;;;7329987;19;162576;-17
2022/03/30 14:51:21;;;;;;;9.95;4.00;;;;;;;;;;7332673;19;153930;-17
2022/03/30 14:53:53;;;;;;;5.25;3.28;;;;;;;;;;7331744;19;153903;-17
2022/03/30 14:56:26;;;;;;;5.10;3.35;;;;;;;;;;7331959;19;161831;-16
2022/03/30 14:58:58;;;;;;;4.13;2.83;;;;;;;;;;7332408;19;162627;-16
2022/03/30 15:01:29;;;;;;;3.83;3.15;;;;;;;;;;7332636;19;154206;-17
2022/03/30 15:04:00;;;;;;;4.38;3.55;;;;;;;;;;7332608;19;153597;-18
2022/03/30 15:06:33;;;;;;;3.40;3.10;;;;;;;;;;7331966;19;162099;-17
2022/03/30 15:09:04;;;;;;;4.38;3.35;;;;;;;;;;7331509;19;162622;-16
2022/03/30 15:11:38;;;;;;;4.55;3.42;;;;;;;;;;7332540;19;154083;-17
2022/03/30 15:14:09;;;;;;;4.40;3.55;;;;;;;;;;7331024;19;153599;-17
2022/03/30 15:16:41;;;;;;;4.90;3.28;;;;;;;;;;7332074;19;161958;-16
2022/03/30 15:19:12;;;;;;;3.40;3.10;;;;;;;;;;7331623;19;162452;-17
2022/03/30 15:21:44;;;;;;;4.10;3.50;;;;;;;;;;7332018;19;153915;-17
2022/03/30 15:24:15;;;;;;;4.73;3.33;;;;;;;;;;7331725;19;153521;-16
2022/03/30 15:26:50;;;;;;;3.92;3.50;;;;;;;;;;7331388;19;161817;-16
2022/03/30 15:29:22;;;;;;;7.22;3.80;;;;;;;;;;7330997;19;163099;-17
2022/03/30 15:31:53;;;;;;;6.32;3.47;;;;;;;;;;7331494;19;154059;-17
2022/03/30 15:34:25;;;;;;;6.88;3.60;;;;;;;;;;7331187;19;153639;-16
2022/03/30 15:36:57;;;;;;;5.43;4.00;;;;;;;;;;7331264;19;161955;-17
2022/03/30 15:39:28;;;;;;;4.00;3.65;;;;;;;;;;7331128;19;162826;-17
2022/03/30 15:42:04;;;;;;;4.80;3.47;;;;;;;;;;7331084;19;153919;-17
2022/03/30 15:44:35;;;;;;;4.78;3.63;;;;;;;;;;7331197;19;153562;-16
2022/03/30 15:47:08;;;;;;;4.38;3.70;;;;;;;;;;7330486;19;161843;-17
2022/03/30 15:49:39;;;;;;;5.05;3.75;;;;;;;;;;7329527;19;162374;-17
2022/03/30 15:52:10;;;;;;;5.80;3.63;;;;;;;;;;7331319;19;153922;-16
2022/03/30 15:54:42;;;;;;;3.85;3.33;;;;;;;;;;7328781;19;153521;-17
2022/03/30 15:57:16;;;;;;;3.75;3.28;;;;;;;;;;7330564;19;162010;-17
2022/03/30 15:59:48;;;;;;;6.03;3.72;;;;;;;;;;7329949;19;162632;-17
2022/03/30 16:02:19;;;;;;;3.75;3.00;;;;;;;;;;7330942;19;154091;-16
2022/03/30 16:04:51;;;;;;;4.60;3.35;;;;;;;;;;7329688;19;153533;-17
2022/03/30 16:07:22;;;;;;;4.30;3.13;;;;;;;;;;7330055;19;162266;-17
2022/03/30 16:09:53;;;;;;;3.60;3.25;;;;;;;;;;7330083;19;162384;-18
2022/03/30 16:12:26;;;;;;;3.88;3.00;;;;;;;;;;7330559;19;154076;-17
2022/03/30 16:14:59;;;;;;;5.78;3.10;;;;;;;;;;7330215;19;153521;-17
2022/03/30 16:17:30;;;;;;;6.03;3.28;;;;;;;;;;7329655;19;161819;-17
2022/03/30 16:20:18;;;;;;;4.40;3.33;;;;;;;;;;7328447;19;162647;-17
2022/03/30 16:22:50;;;;;;;3.53;3.00;;;;;;;;;;7330130;19;153595;-17
2022/03/30 16:25:24;;;;;;;3.72;2.95;;;;;;;;;;7329926;19;153329;-17
2022/03/30 16:27:58;;;;;;;3.80;2.72;;;;;;;;;;7328972;19;162100;-17
2022/03/30 16:30:29;;;;;;;4.93;2.85;;;;;;;;;;7329608;19;162396;-17
2022/03/30 16:33:01;;;;;;;7.13;2.90;;;;;;;;;;7329844;19;153924;-17
2022/03/30 16:35:33;;;;;;;4.03;2.90;;;;;;;;;;7329735;19;153776;-17
2022/03/30 16:38:04;;;;;;;3.83;2.70;;;;;;;;;;7329329;19;161836;-17
2022/03/30 16:40:37;;;;;;;4.35;3.00;;;;;;;;;;7327923;19;162605;-16
2022/03/30 16:43:11;;;;;;;2.78;2.58;;;;;;;;;;7329710;19;153909;-17
2022/03/30 16:45:43;;;;;;;5.30;3.08;;;;;;;;;;7329259;19;153587;-17
2022/03/30 16:48:14;;;;;;;4.15;3.25;;;;;;;;;;7328339;19;161840;-17
2022/03/30 16:50:46;;;;;;;3.30;3.00;;;;;;;;;;7328541;19;162845;-17
2022/03/30 16:53:17;;;;;;;8.18;2.88;;;;;;;;;;7328789;19;154100;-15
2022/03/30 16:55:48;;;;;;;2.85;2.55;;;;;;;;;;7329208;19;153837;-16
2022/03/30 16:58:25;;;;;;;4.07;2.63;;;;;;;;;;7328834;19;161826;-16
2022/03/30 17:00:58;;;;;;;3.50;2.65;;;;;;;;;;7328469;19;162591;-16
2022/03/30 17:03:30;;;;;;;4.35;2.70;;;;;;;;;;7327857;19;153992;-17
2022/03/30 17:06:02;;;;;;;4.45;2.47;;;;;;;;;;7328569;19;153519;-16
2022/03/30 17:11:18;;;;;;;3.42;2.45;;;;;;;;;;7328087;19;162576;-17
2022/03/30 17:13:52;;;;;;;3.78;2.67;;;;;;;;;;7333965;19;154278;-16
2022/03/30 17:16:23;;;;;;;3.90;2.40;;;;;;;;;;7335443;19;153538;-16
2022/03/30 17:18:54;;;;;;;3.67;2.70;;;;;;;;;;7335007;19;162169;-18
2022/03/30 17:21:26;;;;;;;3.53;2.53;;;;;;;;;;7334773;19;162728;-17
2022/03/30 17:23:57;;;;;;;5.82;3.20;;;;;;;;;;7333988;19;154317;-17
2022/03/30 17:26:29;;;;;;;2.78;2.42;;;;;;;;;;7335387;19;153830;-16
2022/03/30 17:29:03;;;;;;;5.38;2.38;;;;;;;;;;7333690;19;162050;-16
2022/03/30 17:31:34;;;;;;;2.97;2.67;;;;;;;;;;7334644;19;162453;-15
2022/03/30 17:34:08;;;;;;;4.78;2.53;;;;;;;;;;7333577;19;154078;-16
2022/03/30 17:36:41;;;;;;;2.78;2.30;;;;;;;;;;7334786;19;153527;-18
2022/03/30 17:39:12;;;;;;;3.78;2.70;;;;;;;;;;7333935;19;161847;-17
2022/03/30 17:41:44;;;;;;;3.20;2.65;;;;;;;;;;7334413;19;162440;-17
2022/03/30 17:44:18;;;;;;;4.03;2.25;;;;;;;;;;7334534;19;154505;-17
2022/03/30 17:46:50;;;;;;;4.47;2.50;;;;;;;;;;7334327;19;153472;-18
2022/03/30 17:52:06;;;;;;;2.67;2.30;;;;;;;;;;7333897;19;162481;-16
2022/03/30 17:54:37;;;;;;;;;;;;;;;;;;7333294;19;153929;-16
2022/03/30 17:57:09;;;;;;;3.00;2.38;;;;;;;;;;7334639;19;153297;-17
2022/03/30 17:59:43;;;;;;;3.47;2.50;;;;;;;;;;7333790;19;161779;-16
2022/03/30 18:02:15;;;;;;;3.22;2.40;;;;;;;;;;7333821;19;162365;-16
2022/03/30 18:04:46;;;;;;;2.97;2.00;;;;;;;;;;7333982;19;154057;-16
2022/03/30 18:07:17;;;;;;;3.75;2.28;;;;;;;;;;7334240;19;153604;-17
2022/03/30 18:09:48;;;;;;;3.53;2.40;;;;;;;;;;7332258;19;161810;-17
2022/03/30 18:12:20;;;;;;;2.42;1.73;;;;;;;;;;7333265;19;162635;-17
2022/03/30 18:14:53;;;;;;;2.25;1.83;;;;;;;;;;7333883;19;154199;-16
2022/03/30 18:17:25;;;;;;;4.45;2.33;;;;;;;;;;7333468;19;153840;-16
2022/03/30 18:19:59;;;;;;;4.22;2.10;;;;;;;;;;7333469;19;161764;-16
2022/03/30 18:22:30;;;;;;;2.67;2.10;;;;;;;;;;7333058;19;162320;-17
2022/03/30 18:25:01;;;;;;;2.67;1.90;;;;;;;;;;7333421;19;153961;-16
2022/03/30 18:27:35;;;;;;;3.90;2.10;;;;;;;;;;7333559;19;153652;-18
2022/03/30 18:30:11;;;;;;;6.22;2.70;;;;;;;;;;7331743;19;161798;-15
2022/03/30 18:32:43;;;;;;;2.80;2.05;;;;;;;;;;7332687;19;162379;-15
2022/03/30 18:35:14;;;;;;;4.53;2.22;;;;;;;;;;7333137;19;153929;-16
2022/03/30 18:37:45;;;;;;;4.88;2.05;;;;;;;;;;7333019;19;153506;-15
2022/03/30 18:40:17;;;;;;;5.53;2.10;;;;;;;;;;7332914;19;162076;-15
2022/03/30 18:42:49;;;;;;;3.08;2.20;;;;;;;;;;7332583;19;162587;-16
2022/03/30 18:45:25;;;;;;;4.53;2.33;;;;;;;;;;7332863;19;153945;-16
2022/03/30 18:47:57;;;;;;;3.15;2.13;;;;;;;;;;7332786;19;153498;-16
2022/03/30 18:50:45;;;;;;;2.28;2.17;;;;;;;;;;7330838;19;161799;-16
2022/03/30 18:53:17;;;;;;;3.83;2.05;;;;;;;;;;7331326;19;162408;-16
2022/03/30 18:55:48;;;;;;;4.80;2.30;;;;;;;;;;7332634;19;154013;-15
2022/03/30 18:58:20;;;;;;;3.40;2.45;;;;;;;;;;7332397;19;153309;-15
2022/03/30 19:00:54;;;;;;;3.53;2.20;;;;;;;;;;7331133;19;161857;-16
2022/03/30 19:03:30;;;;;;;5.47;2.40;;;;;;;;;;7332028;19;162404;-16
2022/03/30 19:06:03;;;;;;;2.33;2.13;;;;;;;;;;7332163;19;154029;-16
2022/03/30 19:08:34;;;;;;;2.67;2.03;;;;;;;;;;7332059;19;153766;-18
2022/03/30 19:11:06;;;;;;;3.40;2.45;;;;;;;;;;7329841;19;161853;-18
2022/03/30 19:13:40;;;;;;;5.50;2.42;;;;;;;;;;7331643;19;162640;-16
2022/03/30 19:16:14;;;;;;;4.47;2.60;;;;;;;;;;7331927;19;154334;-16
2022/03/30 19:18:46;;;;;;;4.30;2.50;;;;;;;;;;7331705;19;153538;-17
2022/03/30 19:21:17;;;;;;;2.95;2.58;;;;;;;;;;7331313;19;161774;-17
2022/03/30 19:23:50;;;;;;;3.47;2.58;;;;;;;;;;7330497;19;162844;-17
2022/03/30 19:26:22;;;;;;;6.03;2.97;;;;;;;;;;7335307;19;154242;-16
2022/03/30 19:28:53;;;;;;;5.65;2.83;;;;;;;;;;7335654;19;153541;-17
2022/03/30 19:31:27;;;;;;;3.47;2.95;;;;;;;;;;7328908;19;162267;-16
2022/03/30 19:33:59;;;;;;;6.68;3.13;;;;;;;;;;7330912;19;162593;-16
2022/03/30 19:36:30;;;;;;;5.90;3.35;;;;;;;;;;7331457;19;154016;-18
2022/03/30 19:39:01;;;;;;;6.10;3.53;;;;;;;;;;7334442;19;153611;-16
2022/03/30 19:41:34;;;;;;;7.20;4.30;;;;;;;;;;7333837;19;162098;-19
2022/03/30 19:44:06;;;;;;;7.93;4.68;;;;;;;;;;7330602;19;162504;-16
2022/03/30 19:46:42;;;;;;;10.15;4.95;;;;;;;;;;7331242;19;154118;-17
2022/03/30 19:49:14;;;;;;;8.07;5.03;;;;;;;;;;7330925;19;153626;-17
2022/03/30 19:51:46;;;;;;;7.78;4.70;;;;;;;;;;7331414;19;161857;-18
2022/03/30 19:54:17;;;;;;;10.65;4.47;;;;;;;;;;7332307;19;162278;-17
2022/03/30 19:56:49;;;;;;;7.15;4.93;;;;;;;;;;7332617;19;154656;-17
2022/03/30 19:59:20;;;;;;;7.75;4.80;;;;;;;;;;7333254;19;153530;-17
2022/03/30 20:01:54;;;;;;;9.10;4.32;;;;;;;;;;7333431;19;162094;-17
2022/03/30 20:04:26;;;;;;;10.40;5.13;;;;;;;;;;7332960;19;162538;-17
2022/03/30 20:06:57;;;;;;;8.63;4.63;;;;;;;;;;7329261;19;153962;-17
2022/03/30 20:09:29;;;;;;;14.02;4.85;;;;;;;;;;7330165;19;153839;-17
2022/03/30 20:12:00;;;;;;;7.50;4.68;;;;;;;;;;7327500;19;161559;-18
2022/03/30 20:14:33;;;;;;;7.70;5.13;;;;;;;;;;7332418;19;162452;-17
2022/03/30 20:17:07;;;;;;;5.53;4.00;;;;;;;;;;7332768;19;154002;-19
2022/03/30 20:19:39;;;;;;;8.50;4.40;;;;;;;;;;7333041;19;153670;-16
2022/03/30 20:22:10;;;;;;;6.57;4.18;;;;;;;;;;7331442;19;161848;-17
2022/03/30 20:24:42;;;;;;;10.55;4.30;;;;;;;;;;7332545;19;162496;-18
2022/03/30 20:27:14;;;;;;;6.10;3.63;;;;;;;;;;7332459;19;154002;-17
2022/03/30 20:29:45;;;;;;;7.05;4.25;;;;;;;;;;7333177;19;153624;-17
2022/03/30 20:32:20;;;;;;;6.97;4.20;;;;;;;;;;7328482;19;161864;-18
2022/03/30 20:34:54;;;;;;;10.52;4.18;;;;;;;;;;7331134;19;162560;-17
2022/03/30 20:37:29;;;;;;;9.07;3.78;;;;;;;;;;7331847;19;154008;-17
2022/03/30 20:40:00;;;;;;;10.07;4.47;;;;;;;;;;7331110;19;155346;-18
2022/03/30 20:42:35;;;;;;;5.93;3.83;;;;;;;;;;7332053;19;161934;-18
2022/03/30 20:45:09;;;;;;;6.40;3.80;;;;;;;;;;7331656;19;162372;-16
2022/03/30 20:47:43;;;;;;;12.32;4.32;;;;;;;;;;7330288;19;153964;-17
2022/03/30 20:50:15;;;;;;;4.78;3.80;;;;;;;;;;7335269;19;153541;-16
2022/03/30 20:52:47;;;;;;;5.70;3.58;;;;;;;;;;7336473;19;162086;-18
2022/03/30 20:55:19;;;;;;;6.37;3.80;;;;;;;;;;7336605;19;162399;-17
2022/03/30 20:57:53;;;;;;;5.78;3.72;;;;;;;;;;7339316;19;154048;-16
2022/03/30 21:00:25;;;;;;;8.48;3.88;;;;;;;;;;7339301;19;153339;-17
2022/03/30 21:02:59;;;;;;;8.07;3.90;;;;;;;;;;7338465;19;161800;-17
2022/03/30 21:05:30;;;;;;;6.63;3.70;;;;;;;;;;7338330;19;162514;-17
2022/03/30 21:08:02;;;;;;;9.32;4.82;;;;;;;;;;7338515;19;154002;-17
2022/03/30 21:10:34;;;;;;;5.18;2.92;;;;;;;;;;7338404;19;153795;-16
2022/03/30 21:13:05;;;;;;;9.30;4.28;;;;;;;;;;7336152;19;161846;-16
2022/03/30 21:15:38;;;;;;;6.10;3.43;;;;;;;;;;7336633;19;162779;-16
2022/03/30 21:18:12;;;;;;;5.10;3.30;;;;;;;;;;7338605;19;154163;-16
2022/03/30 21:20:46;;;;;;;5.93;3.15;;;;;;;;;;7338565;19;153449;-17
2022/03/30 21:23:18;;;;;;;6.80;3.60;;;;;;;;;;7337001;19;161964;-16
2022/03/30 21:25:50;;;;;;;5.32;3.35;;;;;;;;;;7337011;19;162356;-16
2022/03/30 21:28:21;;;;;;;5.65;3.33;;;;;;;;;;7338124;19;154159;-16
2022/03/30 21:30:53;;;;;;;4.55;3.65;;;;;;;;;;7337592;19;154934;-18
2022/03/30 21:33:27;;;;;;;7.55;3.20;;;;;;;;;;7334977;19;161914;-18
2022/03/30 21:36:00;;;;;;;6.45;3.35;;;;;;;;;;7337645;19;162333;-16
2022/03/30 21:38:31;;;;;;;6.38;3.95;;;;;;;;;;7338114;19;154209;-17
2022/03/30 21:41:03;;;;;;;6.30;3.42;;;;;;;;;;7337424;19;153515;-17
2022/03/30 21:43:38;;;;;;;4.63;3.10;;;;;;;;;;7338520;19;161796;-17
2022/03/30 21:46:09;;;;;;;3.70;3.00;;;;;;;;;;7337254;19;162434;-15
2022/03/30 21:48:43;;;;;;;5.63;3.38;;;;;;;;;;7336901;19;154361;-17
2022/03/30 21:51:14;;;;;;;9.50;3.58;;;;;;;;;;7337616;19;153519;-17
2022/03/30 21:53:46;;;;;;;7.32;3.10;;;;;;;;;;7332644;19;161892;-17
2022/03/30 21:56:17;;;;;;;4.15;2.42;;;;;;;;;;7332524;19;162708;-18
2022/03/30 21:58:49;;;;;;;5.25;2.53;;;;;;;;;;7332937;19;154631;-16
2022/03/30 22:01:20;;;;;;;6.38;2.92;;;;;;;;;;7333914;19;153659;-17
2022/03/30 22:03:54;;;;;;;4.43;2.92;;;;;;;;;;7333505;19;162134;-17
2022/03/30 22:06:25;;;;;;;4.50;2.83;;;;;;;;;;7333602;19;162679;-17
2022/03/30 22:08:57;;;;;;;3.70;2.65;;;;;;;;;;7333663;19;154236;-16
2022/03/30 22:11:29;;;;;;;4.15;2.83;;;;;;;;;;7333481;19;153495;-16
2022/03/30 22:14:00;;;;;;;7.53;3.45;;;;;;;;;;7333242;19;161865;-19
2022/03/30 22:16:31;;;;;;;3.45;2.80;;;;;;;;;;7332850;19;162703;-17
2022/03/30 22:19:05;;;;;;;5.00;2.83;;;;;;;;;;7333467;19;153998;-16
2022/03/30 22:21:37;;;;;;;3.88;2.70;;;;;;;;;;7333313;19;153589;-17
2022/03/30 22:24:09;;;;;;;4.32;3.05;;;;;;;;;;7332568;19;162114;-18
2022/03/30 22:26:41;;;;;;;3.53;2.75;;;;;;;;;;7332888;19;162436;-15
2022/03/30 22:29:15;;;;;;;6.20;3.53;;;;;;;;;;7332968;19;154134;-17
2022/03/30 22:37:16;;;;;;;3.55;2.58;;;;;;;;;;7332704;19;162386;-17
2022/03/30 22:39:48;;;;;;;6.22;2.50;;;;;;;;;;7333044;19;154044;-17
2022/03/30 22:42:19;;;;;;;4.13;2.60;;;;;;;;;;7333129;19;153604;-18
2022/03/30 22:44:51;;;;;;;4.68;3.00;;;;;;;;;;7332524;19;161965;-17
2022/03/30 22:47:22;;;;;;;4.57;3.13;;;;;;;;;;7332573;19;162775;-17
2022/03/30 22:49:56;;;;;;;2.95;2.35;;;;;;;;;;7332479;19;153973;-17
2022/03/30 22:52:27;;;;;;;4.30;3.00;;;;;;;;;;7331649;19;153633;-16
2022/03/30 22:54:59;;;;;;;4.82;2.35;;;;;;;;;;7328936;19;161850;-17
2022/03/30 22:57:30;;;;;;;4.13;2.88;;;;;;;;;;7332185;19;162525;-18
2022/03/30 23:00:01;;;;;;;4.32;2.67;;;;;;;;;;7332362;19;153942;-20
2022/03/30 23:02:33;;;;;;;3.15;2.85;;;;;;;;;;7332564;19;153766;-17
2022/03/30 23:10:35;;;;;;;3.22;2.70;;;;;;;;;;7333611;19;154083;-18
2022/03/30 23:13:07;;;;;;;4.00;2.85;;;;;;;;;;7330686;19;154198;-18
2022/03/30 23:15:44;;;;;;;4.53;2.30;;;;;;;;;;7332346;19;161867;-17
2022/03/30 23:18:16;;;;;;;2.50;2.22;;;;;;;;;;7333851;19;162223;-17
2022/03/30 23:20:50;;;;;;;2.65;2.42;;;;;;;;;;7331725;19;154057;-18
2022/03/30 23:23:22;;;;;;;3.28;2.80;;;;;;;;;;7331656;19;153482;-18
2022/03/30 23:25:54;;;;;;;2.72;2.40;;;;;;;;;;7330513;19;161941;-17
2022/03/30 23:28:25;;;;;;;5.03;2.47;;;;;;;;;;7331663;19;162349;-17
2022/03/30 23:30:57;;;;;;;4.47;2.80;;;;;;;;;;7333681;19;154284;-18
2022/03/30 23:33:28;;;;;;;5.70;2.70;;;;;;;;;;7328118;19;153692;-17
2022/03/30 23:36:02;;;;;;;8.73;2.80;;;;;;;;;;7329883;19;161841;-18
2022/03/30 23:38:37;;;;;;;6.53;2.58;;;;;;;;;;7330915;19;162500;-15
2022/03/30 23:41:08;;;;;;;5.85;2.80;;;;;;;;;;7328680;19;153960;-17
2022/03/30 23:43:40;;;;;;;4.28;2.65;;;;;;;;;;7330846;19;153539;-17
2022/03/30 23:46:11;;;;;;;4.72;2.42;;;;;;;;;;7330871;19;161581;-16
2022/03/30 23:48:43;;;;;;;4.15;2.53;;;;;;;;;;7330846;19;162830;-18
2022/03/30 23:51:17;;;;;;;3.05;2.38;;;;;;;;;;7331533;19;154273;-16
2022/03/30 23:53:48;;;;;;;5.05;2.72;;;;;;;;;;7329499;19;153532;-18
